CheckWX is a tool to help pilots better visualize weather data.  It is not intended as a substitute for an official pre-flight weather briefing.

14:36:19 UTC

KTBX METAR
Boysen Reservoir
Boysen Reservoir, Wyoming, USA
Current

21 mins ago

KTBX 221415Z AUTO OVC002 00/M01 A3034 RMK AO2 PWINO
Observed
Apr-22 @ 14:15 UTC
Visibility
Cloud Levels
  • Overcast at 200' AGL
Temperature
C / 32°F
Dewpoint
-1°C / 30°F
Humidity
93%
Altimeter
30.34" Hg
Pressure
1027.42 hPa
Previous

41 mins ago

KTBX 221355Z AUTO 29005KT OVC002 00/M01 A3034 RMK AO2 PWINO
Observed
Apr-22 @ 13:55 UTC
Wind
  • 290° at 5 KTS
Visibility
Cloud Levels
  • Overcast at 200' AGL
Temperature
C / 32°F
Dewpoint
-1°C / 30°F
Humidity
93%
Altimeter
30.34" Hg
Pressure
1027.42 hPa
Previous

1 hour ago

KTBX 221335Z AUTO OVC002 00/M01 A3033 RMK AO2 PWINO
Observed
Apr-22 @ 13:35 UTC
Visibility
Cloud Levels
  • Overcast at 200' AGL
Temperature
C / 32°F
Dewpoint
-1°C / 30°F
Humidity
93%
Altimeter
30.33" Hg
Pressure
1027.12 hPa